Time;durP1;ratioP1;P1;durP2;ratioP2;P2;SDS_P1;SDS_P2;PMS_P1;PMS_P2;Temp;Humidity;BMP_temperature;BMP_pressure;BME280_temperature;BME280_humidity;BME280_pressure;Samples;Min_cycle;Max_cycle;Signal;HPM_P1;HPM_P2
2023/12/22 00:01:42;;;;;;;12.23;3.23;;;11.10;52.00;;;;;;5033895;28;20187;-86
2023/12/22 00:04:08;;;;;;;12.50;3.53;;;11.00;62.60;;;;;;5034326;28;20300;-83
2023/12/22 00:06:34;;;;;;;10.70;3.27;;;11.00;59.30;;;;;;5032903;28;20567;-83
2023/12/22 00:09:00;;;;;;;14.23;3.50;;;11.00;57.40;;;;;;5033414;28;20268;-83
2023/12/22 00:11:25;;;;;;;7.77;2.57;;;11.00;53.40;;;;;;5033520;28;20178;-83
2023/12/22 00:13:51;;;;;;;13.43;3.37;;;11.10;48.20;;;;;;5034657;28;20576;-82
2023/12/22 00:16:17;;;;;;;13.93;2.90;;;11.10;49.20;;;;;;5034029;28;20203;-82
2023/12/22 00:18:42;;;;;;;8.20;2.70;;;11.10;46.20;;;;;;5033109;28;20762;-82
2023/12/22 00:21:11;;;;;;;8.77;2.43;;;11.00;49.20;;;;;;5032476;28;20178;-82
2023/12/22 00:23:37;;;;;;;10.90;2.80;;;11.00;53.10;;;;;;5031666;28;20182;-82
2023/12/22 00:26:05;;;;;;;11.23;2.90;;;10.90;62.90;;;;;;5031677;28;20174;-83
2023/12/22 00:28:32;;;;;;;10.57;2.30;;;10.70;78.50;;;;;;5032970;28;20174;-82
2023/12/22 00:30:58;;;;;;;7.77;2.40;;;10.50;79.70;;;;;;5033405;28;20631;-85
2023/12/22 00:33:25;;;;;;;10.13;2.50;;;10.30;82.80;;;;;;5033086;28;20185;-82
2023/12/22 00:35:51;;;;;;;9.87;2.60;;;10.30;88.10;;;;;;5031982;28;20223;-83
2023/12/22 00:38:17;;;;;;;9.70;2.83;;;10.30;90.10;;;;;;5032576;28;20224;-82
2023/12/22 00:40:42;;;;;;;10.93;3.03;;;10.30;91.30;;;;;;5031826;28;20554;-81
2023/12/22 00:43:08;;;;;;;15.73;3.23;;;10.20;93.70;;;;;;5032721;28;20209;-82
2023/12/22 00:45:34;;;;;;;8.73;2.30;;;10.20;94.70;;;;;;5031982;28;20173;-83
2023/12/22 00:47:59;;;;;;;12.90;2.90;;;10.10;96.40;;;;;;5031877;28;20171;-81
2023/12/22 00:50:25;;;;;;;10.80;2.70;;;10.10;97.70;;;;;;5032402;28;20173;-83
2023/12/22 00:52:51;;;;;;;9.03;2.73;;;10.10;99.40;;;;;;5032262;28;20204;-81
2023/12/22 00:55:16;;;;;;;13.60;3.70;;;10.00;95.90;;;;;;5032312;28;20177;-85
2023/12/22 00:57:42;;;;;;;13.57;3.77;;;10.00;97.40;;;;;;5032569;28;20249;-83
2023/12/22 01:00:11;;;;;;;11.60;2.53;;;10.00;97.90;;;;;;5032142;28;20310;-81
2023/12/22 01:02:38;;;;;;;13.57;3.57;;;9.90;99.30;;;;;;5048556;28;20169;-84
2023/12/22 01:05:04;;;;;;;11.23;3.27;;;9.80;99.90;;;;;;5048621;28;20173;-83
2023/12/22 01:07:33;;;;;;;14.23;4.10;;;9.90;99.90;;;;;;5034617;28;20186;-83
2023/12/22 01:10:03;;;;;;;13.13;3.53;;;10.00;98.60;;;;;;5032519;28;20190;-83
2023/12/22 01:12:29;;;;;;;14.53;4.30;;;10.00;96.80;;;;;;5032336;28;20224;-83
2023/12/22 01:14:56;;;;;;;15.90;4.20;;;10.00;94.80;;;;;;5031806;28;20217;-84
2023/12/22 01:17:22;;;;;;;17.10;4.63;;;10.10;93.40;;;;;;5032150;28;20202;-84
2023/12/22 01:19:47;;;;;;;18.00;3.87;;;10.20;91.50;;;;;;5032276;28;20182;-84
2023/12/22 01:22:13;;;;;;;14.03;4.07;;;10.20;90.40;;;;;;5031157;28;20170;-84
2023/12/22 01:24:42;;;;;;;12.47;3.70;;;10.20;86.00;;;;;;5032313;28;20642;-85
2023/12/22 01:27:09;;;;;;;14.97;3.70;;;10.30;83.90;;;;;;5031844;28;20169;-83
2023/12/22 01:29:34;;;;;;;12.47;4.40;;;10.30;80.30;;;;;;5032967;28;20272;-85
2023/12/22 01:32:00;;;;;;;17.60;4.00;;;10.30;76.90;;;;;;5033432;28;20689;-84
2023/12/22 01:34:26;;;;;;;11.77;3.40;;;10.40;71.80;;;;;;5031310;28;20173;-83
2023/12/22 01:36:51;;;;;;;14.23;3.77;;;10.50;71.10;;;;;;5030429;28;20240;-84
2023/12/22 01:39:17;;;;;;;14.23;3.90;;;10.50;72.20;;;;;;5032199;28;20169;-85
2023/12/22 01:41:43;;;;;;;16.77;4.37;;;10.50;71.30;;;;;;5033001;28;20174;-83
2023/12/22 01:44:08;;;;;;;13.97;4.13;;;10.50;71.70;;;;;;5033324;28;20174;-84
2023/12/22 01:46:35;;;;;;;16.20;4.33;;;10.50;70.90;;;;;;5031563;28;20178;-85
2023/12/22 01:49:02;;;;;;;23.37;4.10;;;10.50;70.70;;;;;;5031866;28;20177;-85
2023/12/22 01:51:32;;;;;;;12.43;3.80;;;10.50;72.00;;;;;;5031975;28;20177;-84
2023/12/22 01:53:59;;;;;;;16.20;4.17;;;10.50;73.20;;;;;;5031824;28;20165;-82
2023/12/22 01:56:26;;;;;;;18.77;4.77;;;10.60;73.10;;;;;;5031108;28;20205;-84
2023/12/22 01:58:59;;;;;;;14.83;4.17;;;10.50;75.40;;;;;;5032082;28;20205;-85
2023/12/22 02:01:25;;;;;;;13.90;4.30;;;10.50;78.20;;;;;;5031766;28;20170;-84
2023/12/22 02:03:52;;;;;;;17.83;4.00;;;10.40;81.40;;;;;;5031333;28;20183;-85
2023/12/22 02:06:19;;;;;;;17.73;4.77;;;10.40;84.10;;;;;;5032519;28;20169;-83
2023/12/22 02:08:47;;;;;;;17.40;5.00;;;10.30;86.30;;;;;;5031731;28;20169;-85
2023/12/22 02:11:13;;;;;;;21.97;4.50;;;10.30;87.70;;;;;;5030977;28;20678;-82
2023/12/22 02:13:39;;;;;;;16.37;4.20;;;10.30;89.10;;;;;;5032061;28;20515;-84
2023/12/22 02:16:17;;;;;;;13.80;4.30;;;10.30;87.60;;;;;;5031730;28;20188;-83
2023/12/22 02:18:45;;;;;;;16.50;3.87;;;10.40;87.80;;;;;;5031500;28;20700;-83
2023/12/22 02:21:11;;;;;;;8.83;3.53;;;10.30;84.30;;;;;;5032754;28;20185;-84
2023/12/22 02:23:36;;;;;;;12.03;4.13;;;10.30;77.00;;;;;;5030838;28;20287;-84
2023/12/22 02:26:12;;;;;;;20.30;4.27;;;10.30;77.80;;;;;;5031302;28;20564;-85
2023/12/22 02:28:40;;;;;;;13.07;4.17;;;10.40;73.30;;;;;;5031877;28;20177;-84
2023/12/22 02:31:13;;;;;;;15.67;4.80;;;10.40;68.50;;;;;;5031751;28;20197;-83
2023/12/22 02:33:42;;;;;;;9.83;3.53;;;10.40;65.30;;;;;;5031294;28;20181;-84
2023/12/22 02:36:10;;;;;;;13.30;4.50;;;10.40;56.40;;;;;;5031774;28;20198;-84
2023/12/22 02:38:37;;;;;;;11.33;3.20;;;10.40;54.20;;;;;;5031852;28;20292;-84
2023/12/22 02:41:09;;;;;;;10.80;2.93;;;10.40;51.70;;;;;;5031232;28;20210;-84
2023/12/22 02:43:35;;;;;;;8.77;2.37;;;10.40;48.70;;;;;;5033336;28;20179;-84
2023/12/22 02:46:01;;;;;;;10.83;3.30;;;10.40;44.00;;;;;;5033071;28;20213;-83
2023/12/22 02:48:26;;;;;;;9.23;2.90;;;10.40;45.50;;;;;;5035237;28;20174;-85
2023/12/22 02:50:52;;;;;;;9.80;2.60;;;10.40;43.60;;;;;;5035672;28;20170;-84
2023/12/22 02:53:18;;;;;;;10.20;2.60;;;10.40;45.60;;;;;;5050151;28;20169;-83
2023/12/22 02:55:43;;;;;;;5.90;1.90;;;10.40;47.60;;;;;;5049081;28;20177;-85
2023/12/22 02:58:09;;;;;;;5.47;1.80;;;10.30;47.10;;;;;;5038672;28;20631;-84
2023/12/22 03:00:36;;;;;;;6.90;1.83;;;10.30;48.80;;;;;;5035707;28;20629;-84
2023/12/22 03:03:02;;;;;;;10.87;2.93;;;10.30;49.00;;;;;;5035202;28;20170;-82
2023/12/22 03:05:27;;;;;;;7.77;1.77;;;10.40;51.00;;;;;;5034874;28;20716;-83
2023/12/22 03:07:53;;;;;;;9.90;2.90;;;10.40;52.50;;;;;;5034879;28;20631;-81
2023/12/22 03:10:18;;;;;;;9.60;2.80;;;10.40;55.00;;;;;;5033567;28;20638;-83
2023/12/22 03:12:44;;;;;;;9.40;3.00;;;10.40;58.80;;;;;;5034021;28;20633;-81
2023/12/22 03:15:11;;;;;;;9.73;3.43;;;10.40;65.50;;;;;;5034784;28;20177;-83
2023/12/22 03:17:36;;;;;;;12.40;3.90;;;10.30;72.10;;;;;;5034631;28;20198;-84
2023/12/22 03:20:02;;;;;;;10.47;3.30;;;10.30;76.30;;;;;;5034562;28;20190;-82
2023/12/22 03:22:28;;;;;;;15.57;3.43;;;10.20;83.90;;;;;;5034166;28;20178;-82
2023/12/22 03:24:53;;;;;;;13.40;3.60;;;10.10;90.90;;;;;;5033683;28;20202;-83
2023/12/22 03:27:20;;;;;;;14.77;3.80;;;10.10;92.50;;;;;;5034872;28;20185;-82
2023/12/22 03:29:45;;;;;;;19.67;4.20;;;10.10;94.80;;;;;;5034450;28;20173;-84
2023/12/22 03:32:11;;;;;;;18.60;4.33;;;10.00;96.10;;;;;;5034176;28;20201;-83
2023/12/22 03:34:37;;;;;;;14.43;3.83;;;10.00;96.90;;;;;;5033490;28;20193;-84
2023/12/22 03:37:03;;;;;;;19.63;4.27;;;10.00;97.50;;;;;;5034121;28;20236;-84
2023/12/22 03:39:28;;;;;;;4.73;2.07;;;10.00;98.10;;;;;;5033864;28;20187;-85
2023/12/22 03:41:54;;;;;;;17.07;4.33;;;9.90;98.00;;;;;;5033882;28;20173;-83
2023/12/22 03:44:20;;;;;;;15.47;3.20;;;9.90;99.70;;;;;;5033897;28;20176;-83
2023/12/22 03:46:45;;;;;;;13.90;3.30;;;9.90;99.80;;;;;;5034552;28;20545;-84
2023/12/22 03:49:11;;;;;;;14.67;3.77;;;9.80;99.10;;;;;;5033852;28;20535;-84
2023/12/22 03:51:37;;;;;;;15.07;3.30;;;9.80;99.50;;;;;;5033850;28;20701;-84
2023/12/22 03:54:03;;;;;;;12.13;3.73;;;9.90;99.80;;;;;;5033906;28;20189;-82
2023/12/22 03:56:29;;;;;;;13.13;3.67;;;9.90;99.70;;;;;;5034024;28;20688;-80
2023/12/22 03:58:55;;;;;;;16.27;3.83;;;9.90;99.90;;;;;;5033801;28;20220;-84
2023/12/22 04:01:21;;;;;;;16.57;4.03;;;9.90;99.90;;;;;;5033314;28;20190;-83
2023/12/22 04:03:46;;;;;;;11.03;3.40;;;9.90;99.90;;;;;;5032754;28;20181;-84
2023/12/22 04:06:12;;;;;;;12.83;3.37;;;9.80;99.90;;;;;;5033715;28;20544;-84
2023/12/22 04:08:39;;;;;;;8.63;2.47;;;9.80;99.90;;;;;;5033914;28;20189;-84
2023/12/22 04:11:05;;;;;;;10.73;3.20;;;9.80;99.90;;;;;;5034865;28;20303;-83
2023/12/22 04:13:30;;;;;;;12.53;3.03;;;9.70;99.90;;;;;;5032661;28;20210;-84
2023/12/22 04:15:56;;;;;;;16.00;4.00;;;9.70;99.90;;;;;;5033610;28;20634;-84
2023/12/22 04:18:22;;;;;;;13.00;3.50;;;9.70;99.90;;;;;;5032732;28;20685;-83
2023/12/22 04:20:51;;;;;;;14.67;4.13;;;9.60;99.90;;;;;;5033639;28;20180;-84
2023/12/22 04:23:17;;;;;;;19.17;4.97;;;9.50;99.90;;;;;;5033773;28;20220;-84
2023/12/22 04:25:42;;;;;;;14.70;3.93;;;9.50;99.90;;;;;;5033033;28;20201;-82
2023/12/22 04:28:08;;;;;;;19.50;5.10;;;9.50;99.90;;;;;;5033277;28;20232;-82
2023/12/22 04:30:34;;;;;;;18.17;4.40;;;9.40;99.90;;;;;;5033647;28;20629;-83
2023/12/22 04:33:00;;;;;;;17.33;4.50;;;9.40;99.90;;;;;;5033102;28;20540;-83
2023/12/22 04:35:26;;;;;;;14.70;4.50;;;9.30;99.90;;;;;;5032573;28;20247;-83
2023/12/22 04:37:53;;;;;;;20.37;4.37;;;9.40;99.90;;;;;;5032310;28;20244;-84
2023/12/22 04:40:19;;;;;;;19.07;5.33;;;9.30;99.90;;;;;;5032637;28;20200;-85
2023/12/22 04:42:45;;;;;;;19.67;5.00;;;9.40;99.90;;;;;;5047153;28;20192;-83
2023/12/22 04:45:10;;;;;;;23.03;5.67;;;9.40;99.90;;;;;;5045123;28;20169;-83
2023/12/22 04:47:36;;;;;;;16.43;5.13;;;9.40;99.90;;;;;;5035661;28;20170;-85
2023/12/22 04:50:03;;;;;;;22.57;5.03;;;9.40;99.90;;;;;;5032682;28;20707;-84
2023/12/22 04:52:29;;;;;;;21.90;5.57;;;9.40;99.90;;;;;;5034262;28;20162;-83
2023/12/22 04:54:56;;;;;;;24.63;5.20;;;9.40;99.90;;;;;;5032904;28;20173;-83
2023/12/22 04:57:22;;;;;;;20.47;5.27;;;9.40;99.90;;;;;;5033519;28;20196;-83
2023/12/22 04:59:47;;;;;;;19.33;5.03;;;9.40;99.90;;;;;;5032721;28;20832;-84
2023/12/22 05:02:13;;;;;;;26.97;6.10;;;9.40;99.90;;;;;;5032674;28;20173;-83
2023/12/22 05:04:39;;;;;;;17.43;5.03;;;9.40;99.90;;;;;;5031539;28;20181;-83
2023/12/22 05:07:07;;;;;;;23.83;6.10;;;9.50;99.90;;;;;;5032224;28;20752;-81
2023/12/22 05:09:36;;;;;;;21.43;5.53;;;9.60;99.90;;;;;;5031644;28;20649;-82
2023/12/22 05:12:03;;;;;;;21.63;5.57;;;9.60;99.90;;;;;;5031964;28;20204;-81
2023/12/22 05:14:28;;;;;;;24.30;6.30;;;9.60;99.90;;;;;;5033455;28;20784;-84
2023/12/22 05:16:55;;;;;;;22.37;4.80;;;9.60;99.90;;;;;;5031884;28;20181;-82
2023/12/22 05:19:21;;;;;;;23.83;6.00;;;9.70;99.90;;;;;;5032635;28;20174;-82
2023/12/22 05:21:49;;;;;;;20.60;5.53;;;9.80;99.90;;;;;;5031470;28;20174;-83
2023/12/22 05:24:15;;;;;;;22.33;5.63;;;9.90;99.90;;;;;;5015851;28;20194;-84
2023/12/22 05:26:40;;;;;;;22.93;5.83;;;9.90;99.90;;;;;;5012120;28;20741;-84
2023/12/22 05:29:08;;;;;;;25.00;6.00;;;10.00;99.90;;;;;;5011147;28;20174;-84
2023/12/22 05:31:34;;;;;;;25.67;5.97;;;10.00;99.90;;;;;;5012373;28;20523;-83
2023/12/22 05:34:00;;;;;;;23.07;6.27;;;10.10;99.90;;;;;;5010893;28;20627;-85
2023/12/22 05:36:25;;;;;;;25.37;6.20;;;10.10;99.90;;;;;;5013378;28;20186;-85
2023/12/22 05:38:51;;;;;;;22.30;6.10;;;10.20;99.90;;;;;;5012414;28;20704;-85
2023/12/22 05:41:17;;;;;;;19.53;5.77;;;10.20;99.90;;;;;;5012949;28;20173;-85
2023/12/22 05:43:43;;;;;;;24.73;6.07;;;10.30;99.90;;;;;;5011738;28;20634;-83
2023/12/22 05:46:09;;;;;;;25.10;6.20;;;10.30;99.90;;;;;;5013371;28;20253;-85
2023/12/22 05:48:35;;;;;;;23.47;5.83;;;10.30;99.90;;;;;;5012248;28;20186;-84
2023/12/22 05:51:07;;;;;;;19.83;5.03;;;10.30;99.90;;;;;;5010193;28;20174;-84
2023/12/22 05:53:33;;;;;;;17.40;5.17;;;10.30;99.90;;;;;;5011433;28;20182;-82
2023/12/22 05:55:59;;;;;;;21.73;5.90;;;10.30;99.90;;;;;;5011793;28;20170;-82
2023/12/22 05:58:24;;;;;;;23.53;5.10;;;10.40;99.90;;;;;;5012847;28;20202;-84
2023/12/22 06:00:50;;;;;;;19.80;6.13;;;10.30;99.90;;;;;;5012662;28;20176;-83
2023/12/22 06:03:19;;;;;;;21.17;5.23;;;10.30;99.90;;;;;;5015488;28;20626;-81
2023/12/22 06:05:44;;;;;;;21.57;5.10;;;10.30;99.90;;;;;;5032526;28;20178;-82
2023/12/22 06:08:10;;;;;;;20.03;5.77;;;10.40;99.90;;;;;;5031207;28;20520;-85
2023/12/22 06:10:36;;;;;;;21.70;6.20;;;10.40;99.90;;;;;;5031439;28;20657;-82
2023/12/22 06:13:03;;;;;;;18.90;5.03;;;10.30;99.90;;;;;;5031371;28;20186;-83
2023/12/22 06:15:30;;;;;;;19.27;4.87;;;10.40;99.90;;;;;;5030777;28;20183;-81
2023/12/22 06:17:55;;;;;;;17.00;4.97;;;10.30;99.90;;;;;;5030384;28;20213;-84
2023/12/22 06:20:21;;;;;;;14.57;4.37;;;10.40;99.90;;;;;;5034788;28;20256;-83
2023/12/22 06:22:47;;;;;;;17.27;4.10;;;10.40;99.90;;;;;;5035310;28;20208;-81
2023/12/22 06:25:13;;;;;;;17.47;4.07;;;10.40;99.90;;;;;;5035260;28;20204;-84
2023/12/22 06:27:38;;;;;;;18.20;5.40;;;10.40;99.90;;;;;;5035665;28;20192;-83
2023/12/22 06:30:06;;;;;;;13.67;4.13;;;10.40;99.90;;;;;;5048859;28;20234;-83
2023/12/22 06:32:32;;;;;;;14.57;4.67;;;10.40;99.90;;;;;;5053611;28;20201;-83
2023/12/22 06:35:00;;;;;;;15.80;3.93;;;10.40;99.90;;;;;;5040101;28;20173;-83
2023/12/22 06:37:26;;;;;;;11.50;3.37;;;10.40;99.90;;;;;;5035933;28;20194;-82
2023/12/22 06:39:51;;;;;;;14.17;3.33;;;10.40;99.90;;;;;;5034780;28;20642;-83
2023/12/22 06:42:17;;;;;;;15.17;3.50;;;10.40;99.90;;;;;;5033884;28;20178;-80
2023/12/22 06:44:45;;;;;;;12.17;3.37;;;10.40;99.90;;;;;;5034753;28;20634;-84
2023/12/22 06:47:11;;;;;;;9.67;3.00;;;10.40;99.90;;;;;;5034458;28;20638;-81
2023/12/22 06:49:37;;;;;;;11.57;3.20;;;10.40;99.90;;;;;;5034616;28;20184;-83
2023/12/22 06:52:03;;;;;;;13.13;4.03;;;10.40;99.90;;;;;;5034283;28;20265;-82
2023/12/22 06:54:29;;;;;;;10.50;2.60;;;10.40;99.90;;;;;;5032535;28;20177;-84
2023/12/22 06:56:54;;;;;;;12.63;3.57;;;10.40;99.90;;;;;;5013995;28;20282;-81
2023/12/22 06:59:20;;;;;;;10.53;3.10;;;10.40;99.90;;;;;;5014502;28;20217;-84
2023/12/22 07:01:46;;;;;;;9.43;2.37;;;10.30;99.90;;;;;;5014868;28;20174;-83
2023/12/22 07:04:11;;;;;;;8.70;2.47;;;10.40;99.90;;;;;;5014581;28;20189;-82
2023/12/22 07:06:37;;;;;;;7.43;2.47;;;10.40;99.90;;;;;;5019161;28;20181;-85
2023/12/22 07:09:12;;;;;;;9.10;2.37;;;10.40;99.90;;;;;;5034055;28;20537;-83
2023/12/22 07:11:38;;;;;;;11.07;2.70;;;10.30;99.90;;;;;;5032803;28;20185;-83
2023/12/22 07:14:04;;;;;;;6.27;2.47;;;10.30;99.90;;;;;;5033134;28;20182;-83
2023/12/22 07:16:30;;;;;;;7.67;2.27;;;10.30;99.90;;;;;;5034044;28;20170;-82
2023/12/22 07:18:55;;;;;;;10.50;2.60;;;10.30;99.90;;;;;;5032518;28;20209;-82
2023/12/22 07:21:21;;;;;;;10.07;2.63;;;10.40;99.90;;;;;;5034974;28;20466;-84
2023/12/22 07:23:47;;;;;;;9.57;2.47;;;10.40;99.90;;;;;;5033920;28;20642;-82
2023/12/22 07:26:12;;;;;;;8.00;1.97;;;10.40;99.90;;;;;;5033493;28;20181;-83
2023/12/22 07:28:38;;;;;;;7.47;2.60;;;10.40;99.90;;;;;;5023490;28;20182;-83
2023/12/22 07:31:05;;;;;;;6.00;2.77;;;10.50;99.90;;;;;;5012033;28;20171;-82
2023/12/22 07:33:31;;;;;;;10.40;2.63;;;10.50;99.90;;;;;;5014100;28;20184;-84
2023/12/22 07:35:57;;;;;;;6.77;2.30;;;10.50;99.90;;;;;;5014255;28;20210;-85
2023/12/22 07:38:23;;;;;;;6.10;1.97;;;10.60;99.90;;;;;;5015474;28;20237;-85
2023/12/22 07:40:49;;;;;;;7.90;2.47;;;10.60;99.90;;;;;;5013460;28;20233;-86
2023/12/22 07:43:15;;;;;;;7.53;1.93;;;10.60;99.90;;;;;;5014059;28;20277;-82
2023/12/22 07:45:41;;;;;;;3.80;1.67;;;10.60;99.90;;;;;;5014038;28;20182;-84
2023/12/22 07:48:07;;;;;;;5.33;1.53;;;10.60;99.90;;;;;;5013980;28;20179;-84
2023/12/22 07:50:33;;;;;;;5.27;2.07;;;10.60;99.90;;;;;;5016962;28;20173;-83
2023/12/22 07:52:59;;;;;;;6.33;1.70;;;10.60;99.90;;;;;;5032920;28;20181;-88
2023/12/22 07:55:25;;;;;;;5.53;1.80;;;10.60;99.90;;;;;;5033636;28;20257;-90
2023/12/22 07:57:51;;;;;;;3.40;1.50;;;10.60;99.90;;;;;;5034282;28;20217;-89
2023/12/22 08:00:19;;;;;;;5.30;1.60;;;10.60;99.90;;;;;;5034636;28;20235;-90
2023/12/22 08:02:45;;;;;;;5.33;2.00;;;10.50;99.90;;;;;;5033478;28;20173;-83
2023/12/22 08:05:10;;;;;;;3.97;1.63;;;10.60;99.90;;;;;;5032364;28;20204;-89
2023/12/22 08:07:36;;;;;;;4.77;1.77;;;10.60;99.90;;;;;;5033595;28;20193;-85
2023/12/22 08:10:03;;;;;;;5.53;1.73;;;10.60;99.90;;;;;;5033387;28;20180;-83
2023/12/22 08:12:29;;;;;;;3.80;1.73;;;10.50;99.90;;;;;;5033564;28;20189;-85
2023/12/22 08:14:55;;;;;;;3.90;1.63;;;10.50;99.90;;;;;;5033566;28;20189;-84
2023/12/22 08:17:20;;;;;;;5.30;1.97;;;10.50;99.90;;;;;;5032664;28;20232;-89
2023/12/22 08:19:47;;;;;;;4.27;1.73;;;10.50;99.90;;;;;;5041010;28;20166;-84
2023/12/22 08:22:15;;;;;;;7.10;1.90;;;10.50;99.90;;;;;;5050084;28;20178;-88
2023/12/22 08:24:41;;;;;;;3.10;1.63;;;10.50;99.90;;;;;;5045192;28;20663;-87
2023/12/22 08:27:10;;;;;;;5.67;2.23;;;10.50;99.90;;;;;;5038394;28;20174;-85
2023/12/22 08:29:37;;;;;;;5.27;2.37;;;10.50;99.90;;;;;;5035276;28;20170;-89
2023/12/22 08:32:03;;;;;;;4.13;2.20;;;10.50;99.90;;;;;;5034234;28;20186;-86
2023/12/22 08:34:28;;;;;;;4.90;2.40;;;10.50;99.90;;;;;;5032999;28;20178;-87
2023/12/22 08:36:54;;;;;;;3.97;2.30;;;10.50;99.90;;;;;;5034381;28;20262;-89
2023/12/22 08:39:20;;;;;;;5.73;2.70;;;10.40;99.90;;;;;;5033261;28;20269;-84
2023/12/22 08:41:46;;;;;;;6.07;3.03;;;10.50;99.90;;;;;;5034823;28;20177;-85
2023/12/22 08:44:16;;;;;;;5.63;3.50;;;10.50;99.90;;;;;;5033449;28;20182;-83
2023/12/22 08:46:41;;;;;;;4.17;3.03;;;10.50;99.90;;;;;;5034623;28;20173;-89
2023/12/22 08:49:07;;;;;;;5.30;3.00;;;10.50;99.90;;;;;;5032749;28;20173;-82
2023/12/22 08:51:33;;;;;;;7.67;3.50;;;10.60;99.90;;;;;;5033403;28;20173;-83
2023/12/22 08:53:59;;;;;;;7.00;3.30;;;10.50;99.90;;;;;;5032762;28;20249;-87
2023/12/22 08:56:26;;;;;;;9.00;4.80;;;10.60;99.90;;;;;;5033594;28;20181;-87
2023/12/22 08:58:54;;;;;;;9.40;4.20;;;10.60;99.90;;;;;;5034343;28;20220;-85
2023/12/22 09:01:21;;;;;;;5.53;3.30;;;10.70;99.90;;;;;;5033317;28;20180;-86
2023/12/22 09:04:01;;;;;;;7.03;3.60;;;10.70;99.90;;;;;;5092248;28;20550;-83
2023/12/22 09:06:27;;;;;;;7.17;3.13;;;10.70;99.90;;;;;;5089902;28;20264;-84
2023/12/22 09:08:53;;;;;;;6.90;3.07;;;10.80;99.90;;;;;;5090134;28;20211;-90
2023/12/22 09:11:21;;;;;;;6.53;3.73;;;10.80;99.90;;;;;;5091489;28;20625;-88
2023/12/22 09:13:47;;;;;;;8.93;4.30;;;10.80;99.90;;;;;;5089497;28;20698;-88
2023/12/22 09:16:15;;;;;;;8.83;2.90;;;10.90;99.90;;;;;;5091116;28;20176;-87
2023/12/22 09:18:42;;;;;;;7.73;3.07;;;10.90;99.90;;;;;;5090348;28;20248;-90
2023/12/22 09:21:08;;;;;;;6.30;2.80;;;11.00;99.90;;;;;;5090929;28;20168;-88
2023/12/22 09:23:34;;;;;;;6.57;2.70;;;11.00;99.90;;;;;;5090029;28;20256;-88
2023/12/22 09:25:59;;;;;;;5.10;2.53;;;11.00;99.90;;;;;;5092366;28;20191;-80
2023/12/22 09:28:26;;;;;;;9.00;3.63;;;11.10;99.90;;;;;;5091436;28;20219;-89
2023/12/22 09:30:52;;;;;;;5.80;2.13;;;11.10;99.90;;;;;;5090777;28;20169;-86
2023/12/22 09:33:18;;;;;;;6.67;2.27;;;11.20;99.90;;;;;;5091200;28;20270;-86
2023/12/22 09:35:44;;;;;;;4.03;2.00;;;11.20;99.90;;;;;;5090437;28;20206;-89
2023/12/22 09:38:12;;;;;;;5.43;2.20;;;11.20;99.90;;;;;;5089417;28;20529;-88
2023/12/22 09:40:39;;;;;;;3.17;1.67;;;11.20;99.90;;;;;;5091952;28;20175;-82
2023/12/22 09:43:07;;;;;;;5.70;1.80;;;11.20;99.90;;;;;;5096220;28;20204;-88
2023/12/22 09:45:38;;;;;;;8.63;2.77;;;11.20;99.90;;;;;;5090793;28;20519;-88
2023/12/22 09:48:06;;;;;;;4.33;1.93;;;11.20;99.90;;;;;;5091568;28;20276;-88
2023/12/22 09:50:33;;;;;;;9.33;2.60;;;11.30;99.90;;;;;;5090712;28;20279;-89
2023/12/22 09:53:01;;;;;;;4.30;1.50;;;11.30;99.90;;;;;;5093035;28;20224;-88
2023/12/22 09:55:28;;;;;;;6.43;2.33;;;11.40;99.90;;;;;;5092551;28;20175;-88
2023/12/22 09:57:55;;;;;;;5.13;1.87;;;11.40;99.90;;;;;;5089180;28;20187;-81
2023/12/22 10:00:22;;;;;;;4.67;1.67;;;11.30;99.90;;;;;;5089235;28;20255;-87
2023/12/22 10:02:48;;;;;;;7.13;1.97;;;11.20;99.90;;;;;;5089340;28;20315;-89
2023/12/22 10:05:14;;;;;;;5.50;2.00;;;11.30;99.90;;;;;;5089447;28;20187;-88
2023/12/22 10:07:43;;;;;;;6.27;1.93;;;11.40;99.90;;;;;;5089887;28;20180;-90
2023/12/22 10:10:11;;;;;;;2.07;1.40;;;11.30;99.90;;;;;;5104767;28;20168;-83
2023/12/22 10:12:39;;;;;;;3.93;1.53;;;11.30;99.90;;;;;;5106661;28;20168;-90
2023/12/22 10:15:06;;;;;;;4.40;1.77;;;11.30;99.90;;;;;;5080131;28;20165;-89
2023/12/22 10:17:33;;;;;;;4.07;1.40;;;11.40;99.90;;;;;;5075765;28;20535;-85
2023/12/22 10:20:00;;;;;;;4.57;1.63;;;11.50;99.90;;;;;;5075243;28;20621;-90
2023/12/22 10:22:25;;;;;;;3.73;1.50;;;11.50;99.90;;;;;;5074635;28;20204;-82
2023/12/22 10:24:51;;;;;;;4.50;1.50;;;11.50;99.90;;;;;;5074714;28;20552;-88
2023/12/22 10:27:22;;;;;;;3.50;1.57;;;11.50;99.90;;;;;;5075314;28;20648;-87
2023/12/22 10:29:54;;;;;;;6.00;1.83;;;11.50;99.90;;;;;;5075844;28;20214;-91
2023/12/22 10:32:22;;;;;;;6.47;1.73;;;11.40;99.90;;;;;;5075831;28;20268;-90
2023/12/22 10:34:48;;;;;;;3.63;1.43;;;11.40;99.90;;;;;;5058000;28;20286;-90
2023/12/22 10:37:15;;;;;;;5.87;2.20;;;11.30;99.90;;;;;;5074317;28;20632;-84
2023/12/22 10:39:41;;;;;;;5.10;1.60;;;11.30;99.90;;;;;;5075587;28;20270;-88
2023/12/22 10:42:07;;;;;;;3.73;1.70;;;11.30;99.90;;;;;;5075839;28;20196;-82
2023/12/22 10:44:33;;;;;;;4.03;1.50;;;11.30;99.90;;;;;;5074791;28;20601;-87
2023/12/22 10:47:00;;;;;;;5.37;1.80;;;11.30;99.90;;;;;;5076116;28;20160;-87
2023/12/22 10:49:26;;;;;;;2.00;1.20;;;11.30;99.90;;;;;;5074505;28;20239;-89
2023/12/22 10:51:52;;;;;;;3.83;1.57;;;11.30;99.90;;;;;;5074754;28;20636;-90
2023/12/22 10:54:19;;;;;;;5.77;1.73;;;11.30;99.90;;;;;;5074494;28;20643;-86
2023/12/22 10:56:45;;;;;;;4.50;2.00;;;11.30;99.90;;;;;;5074117;28;20169;-90
2023/12/22 10:59:11;;;;;;;2.27;1.13;;;11.20;99.90;;;;;;5074786;28;20701;-84
2023/12/22 11:01:40;;;;;;;5.63;2.23;;;11.20;99.90;;;;;;5074408;28;20207;-86
2023/12/22 11:04:07;;;;;;;5.73;1.60;;;11.10;99.90;;;;;;5075135;28;20189;-86
2023/12/22 11:06:37;;;;;;;4.00;1.60;;;11.10;99.90;;;;;;5073569;28;20176;-84
2023/12/22 11:09:08;;;;;;;2.53;1.20;;;11.10;99.90;;;;;;5075935;28;20200;-90
2023/12/22 11:11:36;;;;;;;4.17;1.37;;;11.10;99.90;;;;;;5077130;28;20628;-89
2023/12/22 11:14:02;;;;;;;6.43;1.63;;;11.10;99.90;;;;;;5077058;28;20179;-86
2023/12/22 11:16:30;;;;;;;2.50;1.43;;;11.10;99.90;;;;;;5077572;28;20264;-82
2023/12/22 11:18:56;;;;;;;4.33;1.40;;;11.10;99.90;;;;;;5078393;28;20177;-86
2023/12/22 11:21:26;;;;;;;3.53;1.67;;;11.20;99.90;;;;;;5079784;28;20179;-90
2023/12/22 11:23:53;;;;;;;3.20;1.57;;;11.20;99.90;;;;;;5075649;28;20260;-86
2023/12/22 11:26:21;;;;;;;2.23;1.33;;;11.30;99.90;;;;;;5074267;28;20180;-90
2023/12/22 11:28:52;;;;;;;4.43;1.43;;;11.30;99.90;;;;;;5073496;28;20176;-81
2023/12/22 11:31:18;;;;;;;3.20;1.37;;;11.30;99.90;;;;;;5073130;28;20172;-88
2023/12/22 11:33:49;;;;;;;4.73;1.60;;;11.30;99.90;;;;;;5073271;28;20215;-90
2023/12/22 11:36:16;;;;;;;2.00;0.97;;;11.30;99.90;;;;;;5075089;28;20670;-89
2023/12/22 11:38:43;;;;;;;3.50;1.50;;;11.40;99.90;;;;;;5074475;28;20534;-89
2023/12/22 11:41:17;;;;;;;2.50;1.10;;;11.40;99.90;;;;;;5085198;28;20152;-82
2023/12/22 11:43:44;;;;;;;5.30;1.40;;;11.50;99.90;;;;;;5087778;28;20204;-86
2023/12/22 11:46:09;;;;;;;3.30;1.10;;;11.50;99.90;;;;;;5089613;28;20160;-81
2023/12/22 11:48:35;;;;;;;2.97;0.97;;;11.50;99.90;;;;;;5090970;28;20173;-84
2023/12/22 11:51:01;;;;;;;2.80;1.20;;;11.60;99.90;;;;;;5080896;28;20196;-83
2023/12/22 11:53:32;;;;;;;3.07;1.30;;;11.60;99.90;;;;;;5074354;28;20173;-90
2023/12/22 11:56:08;;;;;;;2.53;1.13;;;11.70;99.90;;;;;;5074676;28;20176;-81
2023/12/22 11:58:41;;;;;;;2.03;1.37;;;11.70;99.90;;;;;;5074491;28;20203;-84
2023/12/22 12:01:13;;;;;;;3.20;1.30;;;11.70;99.90;;;;;;5074413;28;20575;-89
2023/12/22 12:04:03;;;;;;;2.73;0.80;;;11.80;99.90;;;;;;5072778;28;20689;-88
2023/12/22 12:06:31;;;;;;;1.70;0.80;;;11.80;99.90;;;;;;5074609;28;20159;-90
2023/12/22 12:09:02;;;;;;;3.53;1.00;;;11.80;99.90;;;;;;5072525;28;20187;-87
2023/12/22 12:11:54;;;;;;;2.30;1.03;;;11.80;99.90;;;;;;5073194;28;20698;-87
2023/12/22 12:14:29;;;;;;;2.90;0.90;;;11.90;99.90;;;;;;5073097;28;20230;-83
2023/12/22 12:17:05;;;;;;;2.33;0.90;;;11.90;99.90;;;;;;5072430;28;20649;-90
2023/12/22 12:19:33;;;;;;;1.50;1.00;;;12.00;99.90;;;;;;5072886;28;20177;-89
2023/12/22 12:21:58;;;;;;;2.90;0.93;;;12.00;99.90;;;;;;5072114;28;20196;-88
2023/12/22 12:24:25;;;;;;;1.70;0.83;;;12.00;99.90;;;;;;5072440;28;20295;-90
2023/12/22 12:26:52;;;;;;;2.20;1.07;;;12.00;99.90;;;;;;5072279;28;20174;-90
2023/12/22 12:29:17;;;;;;;5.13;1.33;;;12.00;99.90;;;;;;5073345;28;20179;-86
2023/12/22 12:31:43;;;;;;;5.70;1.40;;;12.00;99.90;;;;;;5072793;28;20188;-90
2023/12/22 12:34:14;;;;;;;2.03;0.50;;;12.00;99.90;;;;;;5072475;28;20645;-90
2023/12/22 12:36:40;;;;;;;2.20;0.83;;;12.00;99.90;;;;;;5072388;28;20237;-90
2023/12/22 12:39:08;;;;;;;3.93;1.00;;;12.00;99.90;;;;;;5072535;28;20191;-90
2023/12/22 12:41:44;;;;;;;4.33;1.00;;;12.00;99.90;;;;;;5072845;28;20175;-85